Accueil
METAR-TAF:

METAR-TAF

Aéroports :

Aéroport de Mason

Mason, Michigan, États-Unis

latitude: 42-33-57N, longitude: 084-25-24W, altitude: 280 m

Observation

Le bulletin a été fait il y a 23 minutes, à 07:55 UTC
Vent 3 kt de sud/sud-est
Température 15°C
Humidité 77%
Pression 1011 hPa
Visibilité: 16.1 km
Nuages fragmentés à une hauteur de 4500 ft
Nuages fragmentés à une hauteur de 5500 ft
Ciel couvert à une hauteur de 10000 ft
pluie faible

METAR: KTEW 210755Z AUTO 16003KT 10SM -RA BKN045 BKN055 OVC100 15/11 A2986 RMK AO2 T01520112

Heure: 04:18 (08:18 UTC)


TAF: absent

Observations et prévisions météorologiques de plus de 4000 aéroports (messages METAR et TAF).

Les stations disponibles sont représentées par des disques jaunes et rouges sur la carte.

Passer la souris dessus pour voir le nom de la station.

Cliquer dessus pour voir les observations et prévisions météorologiques.

Pour changer de carte: cliquez sur les boutons verts avec une croix noire pour zoomer, sur le bouton vert avec un tiret pour effectuer un zoom arrière, ou sur les flèches vertes pour les cartes adjacentes.


METAR-TAF: